Bejaia, Algeria
Current Conditions -  °F | °C
As of 10:00 PM on Sunday 25 Jan 2015 (Local Time) from DAAE Reporting Station
Moderate Rain Moderate Rain  
Wind Chill: 40°   Ceiling: 4000
Heat Index: 45°   Visibility: 3mi
Dew Point: 43°   Wind: 9mph
Humidity: 93%   Direction: 260°W
Pressure: 30.09"   Gusts: NA
Location:  36.54°N, 4.97°E
Report Text: DAAE 252100Z 26008KT 5000 RA SCT020TCU FEW026CB BKN04007/06 Q1019
Loading
Personal Weather Stations






























Interactive Weather Map New forecast layout! Learn more

10-Day Weather Forecast

Advertisements
Track Severe Weather on mobile